createdAt,value
2022-10-15T00:00:39.223Z,10.90
2022-10-15T00:03:07.513Z,14.00
2022-10-15T00:05:38.269Z,16.00
2022-10-15T00:08:06.929Z,14.97
2022-10-15T00:10:35.360Z,14.10
2022-10-15T00:13:05.005Z,15.10
2022-10-15T00:15:33.778Z,14.50
2022-10-15T00:18:02.054Z,15.27
2022-10-15T00:20:30.411Z,17.23
2022-10-15T00:22:59.004Z,17.53
2022-10-15T00:25:27.292Z,17.10
2022-10-15T00:27:55.633Z,22.27
2022-10-15T00:30:25.249Z,10.17
2022-10-15T00:32:53.498Z,20.33
2022-10-15T00:35:21.785Z,20.30
2022-10-15T00:37:50.100Z,20.90
2022-10-15T00:40:20.005Z,18.43
2022-10-15T00:42:48.315Z,20.20
2022-10-15T00:45:17.642Z,18.17
2022-10-15T00:47:49.316Z,15.60
2022-10-15T00:50:19.156Z,20.23
2022-10-15T00:52:50.577Z,15.63
2022-10-15T00:55:23.542Z,21.30
2022-10-15T00:57:52.532Z,24.33
2022-10-15T01:00:21.387Z,23.47
2022-10-15T01:02:51.157Z,23.73
2022-10-15T01:05:19.901Z,24.07
2022-10-15T01:07:48.276Z,25.83
2022-10-15T01:10:16.800Z,23.93
2022-10-15T01:12:55.825Z,22.47
2022-10-15T01:15:26.861Z,24.53
2022-10-15T01:17:58.715Z,17.13
2022-10-15T01:20:46.534Z,12.17
2022-10-15T01:23:32.883Z,27.40
2022-10-15T01:26:08.279Z,29.70
2022-10-15T01:28:44.301Z,28.10
2022-10-15T01:31:16.710Z,23.77
2022-10-15T01:33:47.063Z,26.97
2022-10-15T01:36:18.215Z,26.77
2022-10-15T01:38:53.268Z,26.27
2022-10-15T01:41:24.652Z,23.23
2022-10-15T01:43:56.899Z,29.40
2022-10-15T01:46:28.439Z,28.23
2022-10-15T01:48:58.505Z,26.83
2022-10-15T01:51:27.229Z,22.60
2022-10-15T01:53:55.586Z,25.87
2022-10-15T01:56:25.048Z,29.53
2022-10-15T01:58:54.823Z,30.30
2022-10-15T02:01:23.375Z,22.80
2022-10-15T02:03:53.623Z,25.13
2022-10-15T02:06:25.025Z,9.73
2022-10-15T02:09:00.119Z,6.20
2022-10-15T02:11:28.603Z,17.17
2022-10-15T02:14:00.738Z,19.63
2022-10-15T02:16:31.567Z,25.27
2022-10-15T02:19:02.486Z,30.50
2022-10-15T02:21:32.574Z,19.30
2022-10-15T02:24:05.213Z,13.57
2022-10-15T02:26:35.301Z,26.93
2022-10-15T02:29:05.148Z,24.03
2022-10-15T02:31:35.542Z,27.77
2022-10-15T02:34:06.971Z,32.70
2022-10-15T02:36:35.598Z,20.40
2022-10-15T02:39:05.597Z,28.10
2022-10-15T02:41:35.631Z,26.83
2022-10-15T02:44:04.194Z,28.13
2022-10-15T02:46:32.609Z,33.80
2022-10-15T02:49:00.816Z,35.33
2022-10-15T02:51:32.882Z,19.30
2022-10-15T02:54:01.684Z,31.80
2022-10-15T02:59:03.300Z,30.13
2022-10-15T03:01:31.669Z,30.70
2022-10-15T03:04:00.171Z,28.67
2022-10-15T03:06:29.831Z,35.53
2022-10-15T03:08:58.161Z,23.00
2022-10-15T03:11:29.344Z,23.90
2022-10-15T03:13:57.638Z,30.90
2022-10-15T03:16:27.981Z,18.50
2022-10-15T03:18:56.304Z,37.33
2022-10-15T03:21:24.627Z,42.87
2022-10-15T03:23:54.416Z,20.10
2022-10-15T03:26:22.922Z,29.53
2022-10-15T03:28:51.302Z,20.93
2022-10-15T03:31:19.651Z,27.03
2022-10-15T03:33:47.906Z,35.53
2022-10-15T03:36:16.200Z,38.83
2022-10-15T03:38:44.528Z,32.33
2022-10-15T03:41:14.190Z,34.63
2022-10-15T03:43:43.068Z,29.13
2022-10-15T03:46:11.591Z,33.13
2022-10-15T03:48:40.075Z,34.53
2022-10-15T03:51:08.414Z,29.67
2022-10-15T03:53:36.756Z,25.07
2022-10-15T03:56:05.851Z,37.33
2022-10-15T03:58:35.637Z,42.33
2022-10-15T04:01:04.017Z,39.17
2022-10-15T04:03:32.300Z,28.10
2022-10-15T04:06:01.271Z,33.37
2022-10-15T04:08:31.638Z,32.07
2022-10-15T04:11:00.273Z,23.07
2022-10-15T04:13:29.043Z,35.10
2022-10-15T04:15:58.651Z,28.73
2022-10-15T04:18:26.927Z,20.00
2022-10-15T04:20:55.257Z,33.43
2022-10-15T04:23:23.537Z,33.70
2022-10-15T04:25:51.907Z,28.37
2022-10-15T04:28:20.254Z,27.30
2022-10-15T04:30:48.603Z,33.73
2022-10-15T04:33:18.273Z,31.70
2022-10-15T04:35:46.626Z,32.77
2022-10-15T04:38:14.941Z,33.87
2022-10-15T04:40:43.306Z,32.67
2022-10-15T04:43:11.596Z,34.43
2022-10-15T04:45:39.887Z,23.53
2022-10-15T04:48:08.168Z,11.93
2022-10-15T04:50:37.787Z,26.43
2022-10-15T04:53:06.151Z,34.67
2022-10-15T04:55:34.419Z,43.77
2022-10-15T04:58:02.681Z,32.00
2022-10-15T05:00:31.055Z,21.57
2022-10-15T05:03:00.157Z,25.77
2022-10-15T05:05:28.470Z,36.63
2022-10-15T05:08:00.691Z,28.87
2022-10-15T05:10:29.022Z,37.80
2022-10-15T05:12:57.320Z,31.30
2022-10-15T05:15:27.223Z,32.80
2022-10-15T05:17:56.104Z,43.63
2022-10-15T05:20:24.407Z,41.80
2022-10-15T05:22:52.701Z,40.07
2022-10-15T05:25:22.704Z,42.87
2022-10-15T05:27:51.016Z,35.67
2022-10-15T05:30:19.411Z,42.43
2022-10-15T05:32:47.798Z,45.90
2022-10-15T05:35:16.166Z,46.47
2022-10-15T05:37:46.853Z,44.67
2022-10-15T05:40:18.322Z,32.17
2022-10-15T05:45:22.720Z,32.70
2022-10-15T05:47:51.164Z,37.47
2022-10-15T05:50:19.532Z,34.23
2022-10-15T05:52:47.933Z,42.80
2022-10-15T05:55:16.466Z,29.93
2022-10-15T05:57:44.803Z,43.40
2022-10-15T06:00:15.666Z,46.27
2022-10-15T06:02:44.101Z,32.43
2022-10-15T06:05:12.614Z,60.97
2022-10-15T06:07:40.983Z,35.40
2022-10-15T06:10:09.597Z,35.43
2022-10-15T06:12:39.140Z,45.10
2022-10-15T06:15:07.969Z,38.30
2022-10-15T06:17:37.694Z,38.63
2022-10-15T06:20:06.464Z,27.20
2022-10-15T06:22:34.942Z,26.73
2022-10-15T06:25:06.398Z,36.60
2022-10-15T06:27:34.717Z,39.83
2022-10-15T06:30:03.023Z,12.03
2022-10-15T06:32:31.353Z,38.63
2022-10-15T06:35:01.110Z,44.23
2022-10-15T06:37:30.732Z,44.33
2022-10-15T06:39:59.210Z,29.80
2022-10-15T06:42:27.596Z,31.63
2022-10-15T06:44:55.997Z,55.83
2022-10-15T06:47:24.655Z,37.20
2022-10-15T06:49:53.432Z,39.80
2022-10-15T06:52:23.833Z,40.70
2022-10-15T06:54:52.150Z,34.47
2022-10-15T06:57:20.556Z,38.90
2022-10-15T06:59:48.913Z,36.57
2022-10-15T07:02:17.811Z,41.00
2022-10-15T07:04:46.459Z,33.63
2022-10-15T07:07:15.101Z,40.73
2022-10-15T07:09:48.189Z,47.77
2022-10-15T07:12:16.548Z,23.57
2022-10-15T07:14:44.943Z,40.50
2022-10-15T07:17:13.235Z,27.97
2022-10-15T07:19:41.530Z,36.03
2022-10-15T07:22:09.887Z,31.20
2022-10-15T07:24:38.267Z,41.27
2022-10-15T07:27:18.186Z,22.20
2022-10-15T07:29:47.201Z,9.70
2022-10-15T07:32:15.586Z,52.80
2022-10-15T07:34:44.252Z,43.30
2022-10-15T07:37:12.618Z,56.83
2022-10-15T07:39:41.852Z,52.50
2022-10-15T07:44:39.998Z,50.73
2022-10-15T07:47:08.870Z,47.33
2022-10-15T07:49:37.193Z,42.07
2022-10-15T07:52:05.624Z,46.57
2022-10-15T07:54:34.670Z,38.63
2022-10-15T07:57:03.019Z,40.93
2022-10-15T07:59:32.819Z,40.77
2022-10-15T08:02:01.109Z,30.37
2022-10-15T08:04:29.807Z,22.70
2022-10-15T08:06:58.384Z,39.63
2022-10-15T08:09:26.754Z,29.53
2022-10-15T08:11:55.694Z,30.37
2022-10-15T08:14:24.076Z,34.10
2022-10-15T08:16:53.726Z,31.30
2022-10-15T08:19:22.139Z,34.53
2022-10-15T08:21:50.472Z,31.27
2022-10-15T08:24:18.822Z,23.07
2022-10-15T08:26:47.391Z,8.07
2022-10-15T08:29:15.879Z,32.77
2022-10-15T08:31:44.300Z,27.93
2022-10-15T08:34:14.090Z,25.80
2022-10-15T08:36:42.577Z,19.20
2022-10-15T08:39:11.173Z,24.27
2022-10-15T08:41:41.997Z,24.70
2022-10-15T08:44:14.493Z,30.13
2022-10-15T08:46:45.309Z,32.50
2022-10-15T08:49:18.321Z,32.33
2022-10-15T08:51:48.634Z,21.00
2022-10-15T08:54:18.746Z,27.50
2022-10-15T08:56:48.272Z,25.07
2022-10-15T08:59:22.163Z,29.03
2022-10-15T09:01:52.788Z,30.50
2022-10-15T09:06:59.525Z,26.10
2022-10-15T09:09:31.405Z,26.83
2022-10-15T09:12:04.883Z,24.53
2022-10-15T09:14:35.003Z,27.73
2022-10-15T09:17:05.953Z,28.83
2022-10-15T09:19:38.397Z,18.67
2022-10-15T09:22:06.822Z,44.63
2022-10-15T09:24:35.275Z,28.33
2022-10-15T09:27:08.027Z,39.80
2022-10-15T09:29:39.084Z,17.87
2022-10-15T09:32:14.171Z,30.20
2022-10-15T09:34:45.512Z,32.90
2022-10-15T09:37:18.164Z,14.23
2022-10-15T09:39:58.543Z,21.47
2022-10-15T09:42:30.831Z,26.20
2022-10-15T09:45:01.232Z,30.80
2022-10-15T09:47:30.993Z,26.27
2022-10-15T09:50:01.036Z,25.40
2022-10-15T09:52:36.494Z,26.43
2022-10-15T09:55:11.391Z,20.03
2022-10-15T09:57:40.348Z,23.53
2022-10-15T10:00:10.404Z,14.07
2022-10-15T10:02:38.911Z,17.33
2022-10-15T10:05:21.724Z,20.87
2022-10-15T10:07:50.081Z,6.40
2022-10-15T10:10:25.570Z,12.57
2022-10-15T10:12:54.635Z,25.50
2022-10-15T10:15:33.018Z,25.73
2022-10-15T10:18:01.820Z,15.80
2022-10-15T10:20:31.962Z,20.43
2022-10-15T10:23:01.191Z,18.13
2022-10-15T10:25:31.221Z,19.63
2022-10-15T10:28:01.046Z,18.83
2022-10-15T10:30:29.588Z,17.80
2022-10-15T10:32:58.550Z,13.90
2022-10-15T10:35:27.966Z,26.17
2022-10-15T10:37:57.780Z,21.27
2022-10-15T10:40:28.754Z,12.83
2022-10-15T10:43:12.385Z,18.77
2022-10-15T10:45:40.741Z,15.00
2022-10-15T10:48:23.644Z,19.27
2022-10-15T10:51:03.283Z,16.63
2022-10-15T10:53:33.174Z,15.17
2022-10-15T10:56:03.641Z,12.77
2022-10-15T10:58:33.642Z,14.10
2022-10-15T11:01:02.059Z,16.80
2022-10-15T11:03:33.367Z,11.23
2022-10-15T11:06:07.885Z,10.07
2022-10-15T11:08:40.341Z,9.20
2022-10-15T11:11:13.473Z,12.23
2022-10-15T11:13:47.181Z,11.20
2022-10-15T11:16:18.013Z,13.27
2022-10-15T11:18:55.058Z,5.10
2022-10-15T11:21:25.707Z,13.17
2022-10-15T11:24:03.663Z,13.10
2022-10-15T11:26:52.020Z,5.80
2022-10-15T11:29:32.350Z,8.73
2022-10-15T11:32:15.422Z,9.03
2022-10-15T11:34:51.532Z,8.23
2022-10-15T11:37:26.826Z,8.63
2022-10-15T11:40:03.482Z,11.13
2022-10-15T11:42:36.308Z,11.37
2022-10-15T11:45:08.253Z,10.50
2022-10-15T11:47:41.156Z,8.27
2022-10-15T11:50:16.226Z,7.97
2022-10-15T11:52:50.467Z,5.07
2022-10-15T11:55:21.516Z,5.57
2022-10-15T11:57:52.602Z,7.13
2022-10-15T12:00:28.056Z,7.20
2022-10-15T12:02:56.672Z,4.77
2022-10-15T12:05:28.541Z,7.00
2022-10-15T12:07:57.465Z,6.10
2022-10-15T12:10:35.111Z,6.97
2022-10-15T12:13:06.210Z,7.90
2022-10-15T12:15:37.514Z,6.77
2022-10-15T12:18:12.308Z,6.33
2022-10-15T12:20:43.374Z,6.20
2022-10-15T12:23:24.103Z,5.70
2022-10-15T12:25:53.875Z,5.37
2022-10-15T12:28:25.728Z,4.73
2022-10-15T12:31:01.644Z,1.63
2022-10-15T12:33:52.146Z,1.90
2022-10-15T12:36:28.273Z,3.27
2022-10-15T12:39:00.804Z,4.00
2022-10-15T12:41:41.792Z,2.00
2022-10-15T12:44:17.071Z,4.17
2022-10-15T12:46:45.501Z,4.93
2022-10-15T12:49:34.539Z,2.77
2022-10-15T12:52:03.611Z,2.80
2022-10-15T12:54:36.328Z,1.83
2022-10-15T12:57:26.777Z,0.80
2022-10-15T12:59:58.149Z,0.50
2022-10-15T13:02:44.388Z,1.63
2022-10-15T13:05:26.103Z,2.03
2022-10-15T13:07:55.939Z,1.43
2022-10-15T13:10:26.580Z,1.10
2022-10-15T13:12:55.937Z,1.27
2022-10-15T13:15:27.124Z,1.10
2022-10-15T13:17:56.492Z,1.67
2022-10-15T13:20:31.194Z,1.63
2022-10-15T13:23:18.758Z,2.07
2022-10-15T13:26:14.428Z,1.83
2022-10-15T13:28:43.763Z,1.50
2022-10-15T13:31:17.692Z,1.70
2022-10-15T13:33:47.107Z,1.70
2022-10-15T13:36:20.115Z,4.20
2022-10-15T13:38:53.196Z,1.20
2022-10-15T13:41:25.015Z,0.80
2022-10-15T13:43:54.970Z,1.33
2022-10-15T13:46:26.690Z,1.20
2022-10-15T13:48:58.936Z,0.93
2022-10-15T13:51:30.609Z,1.40
2022-10-15T13:53:58.938Z,1.27
2022-10-15T13:56:27.893Z,0.80
2022-10-15T13:58:57.265Z,1.00
2022-10-15T14:01:27.829Z,1.40
2022-10-15T14:03:57.257Z,1.03
2022-10-15T14:06:26.668Z,1.90
2022-10-15T14:08:55.735Z,0.63
2022-10-15T14:11:24.593Z,0.93
2022-10-15T14:13:53.423Z,1.13
2022-10-15T14:16:23.780Z,0.73
2022-10-15T14:18:54.266Z,1.23
2022-10-15T14:21:28.736Z,1.50
2022-10-15T14:24:04.782Z,0.87
2022-10-15T14:26:33.335Z,0.90
2022-10-15T14:29:01.938Z,1.43
2022-10-15T14:31:34.882Z,0.50
2022-10-15T14:34:04.738Z,1.17
2022-10-15T14:36:33.802Z,1.10
2022-10-15T14:39:35.280Z,1.10
2022-10-15T14:42:04.358Z,1.23
2022-10-15T14:44:43.026Z,1.07
2022-10-15T14:47:19.542Z,0.90
2022-10-15T14:49:49.667Z,1.27
2022-10-15T14:52:20.530Z,1.03
2022-10-15T14:54:50.342Z,0.63
2022-10-15T14:57:20.815Z,1.33
2022-10-15T14:59:49.264Z,1.30
2022-10-15T15:02:18.271Z,0.50
2022-10-15T15:04:48.061Z,1.20
2022-10-15T15:07:19.980Z,1.73
2022-10-15T15:09:52.085Z,1.07
2022-10-15T15:12:24.240Z,0.90
2022-10-15T15:14:55.682Z,0.80
2022-10-15T15:17:24.815Z,1.43
2022-10-15T15:19:54.496Z,2.00
2022-10-15T15:22:27.837Z,1.13
2022-10-15T15:24:56.841Z,1.63
2022-10-15T15:27:26.831Z,1.17
2022-10-15T15:29:55.584Z,1.40
2022-10-15T15:32:24.779Z,1.60
2022-10-15T15:34:54.247Z,1.10
2022-10-15T15:37:24.797Z,0.93
2022-10-15T15:39:53.422Z,0.40
2022-10-15T15:42:22.972Z,0.70
2022-10-15T15:44:51.475Z,0.87
2022-10-15T15:47:20.454Z,0.63
2022-10-15T15:49:48.786Z,1.13
2022-10-15T15:52:18.948Z,0.70
2022-10-15T15:54:48.767Z,0.40
2022-10-15T15:57:17.169Z,1.83
2022-10-15T15:59:45.468Z,0.70
2022-10-15T16:02:14.130Z,0.80
2022-10-15T16:04:42.448Z,1.50
2022-10-15T16:07:13.357Z,0.60
2022-10-15T16:09:42.094Z,1.43
2022-10-15T16:12:12.429Z,0.90
2022-10-15T16:14:40.707Z,1.00
2022-10-15T16:17:09.065Z,3.17
2022-10-15T16:19:37.367Z,1.53
2022-10-15T16:22:05.841Z,1.23
2022-10-15T16:24:34.221Z,1.77
2022-10-15T16:27:02.511Z,1.47
2022-10-15T16:29:32.240Z,2.13
2022-10-15T16:32:00.535Z,1.43
2022-10-15T16:34:28.940Z,1.40
2022-10-15T16:36:57.351Z,1.73
2022-10-15T16:39:25.761Z,1.47
2022-10-15T16:41:54.071Z,1.70
2022-10-15T16:44:22.371Z,1.97
2022-10-15T16:46:52.101Z,1.40
2022-10-15T16:49:20.410Z,2.40
2022-10-15T16:51:48.744Z,1.07
2022-10-15T16:54:17.224Z,1.73
2022-10-15T16:56:49.105Z,3.23
2022-10-15T16:59:21.399Z,2.30
2022-10-15T17:01:49.814Z,2.33
2022-10-15T17:04:19.596Z,2.93
2022-10-15T17:06:47.961Z,2.03
2022-10-15T17:09:16.298Z,2.53
2022-10-15T17:11:46.894Z,1.97
2022-10-15T17:14:16.055Z,2.47
2022-10-15T17:16:45.395Z,2.60
2022-10-15T17:19:14.692Z,1.90
2022-10-15T17:21:46.919Z,2.70
2022-10-15T17:24:16.268Z,2.93
2022-10-15T17:26:45.346Z,3.10
2022-10-15T17:29:16.290Z,3.70
2022-10-15T17:31:44.879Z,3.43
2022-10-15T17:34:13.857Z,3.07
2022-10-15T17:36:45.522Z,3.47
2022-10-15T17:39:15.147Z,2.70
2022-10-15T17:41:43.677Z,3.00
2022-10-15T17:44:12.407Z,3.23
2022-10-15T17:46:41.246Z,2.87
2022-10-15T17:49:11.193Z,2.33
2022-10-15T17:51:39.822Z,1.57
2022-10-15T17:54:09.510Z,0.87
2022-10-15T17:56:39.314Z,2.00
2022-10-15T17:59:08.955Z,1.97
2022-10-15T18:01:57.168Z,1.97
2022-10-15T18:04:26.985Z,3.70
2022-10-15T18:06:55.320Z,2.33
2022-10-15T18:09:25.045Z,2.17
2022-10-15T18:11:53.291Z,3.10
2022-10-15T18:14:21.786Z,2.50
2022-10-15T18:16:50.240Z,2.70
2022-10-15T18:19:18.531Z,1.70
2022-10-15T18:21:49.550Z,3.43
2022-10-15T18:24:21.066Z,2.77
2022-10-15T18:26:50.936Z,2.77
2022-10-15T18:29:19.327Z,3.37
2022-10-15T18:31:48.424Z,3.17
2022-10-15T18:34:18.579Z,2.00
2022-10-15T18:36:46.919Z,1.10
2022-10-15T18:39:15.532Z,1.27
2022-10-15T18:44:20.779Z,2.30
2022-10-15T18:46:49.472Z,1.77
2022-10-15T18:49:18.869Z,2.00
2022-10-15T18:51:51.509Z,1.50
2022-10-15T18:54:19.850Z,3.00
2022-10-15T18:56:48.242Z,1.67
2022-10-15T18:59:18.156Z,3.57
2022-10-15T19:01:46.567Z,2.80
2022-10-15T19:04:16.607Z,2.00
2022-10-15T19:06:45.823Z,1.80
2022-10-15T19:09:15.003Z,2.20
2022-10-15T19:11:44.352Z,2.10
2022-10-15T19:14:13.146Z,2.30
2022-10-15T19:16:43.233Z,1.37
2022-10-15T19:19:15.577Z,2.77
2022-10-15T19:21:44.030Z,2.33
2022-10-15T19:24:12.778Z,2.80
2022-10-15T19:26:41.411Z,2.33
2022-10-15T19:29:10.013Z,2.10
2022-10-15T19:31:39.799Z,2.50
2022-10-15T19:34:09.784Z,2.67
2022-10-15T19:36:39.936Z,0.63
2022-10-15T19:39:09.027Z,2.23
2022-10-15T19:41:38.279Z,3.97
2022-10-15T19:44:08.170Z,1.73
2022-10-15T19:46:36.561Z,1.90
2022-10-15T19:49:05.140Z,3.03
2022-10-15T19:51:34.967Z,2.13
2022-10-15T19:54:03.288Z,2.53
2022-10-15T19:56:31.726Z,3.10
2022-10-15T19:59:00.936Z,1.57
2022-10-15T20:01:30.280Z,2.23
2022-10-15T20:04:03.203Z,2.93
2022-10-15T20:06:36.550Z,3.57
2022-10-15T20:09:05.013Z,3.53
2022-10-15T20:11:33.312Z,2.83
2022-10-15T20:14:01.690Z,3.27
2022-10-15T20:16:32.687Z,2.53
2022-10-15T20:19:02.567Z,3.17
2022-10-15T20:21:30.851Z,2.07
2022-10-15T20:24:03.857Z,2.60
2022-10-15T20:26:32.231Z,2.33
2022-10-15T20:29:00.634Z,3.93
2022-10-15T20:31:32.832Z,4.23
2022-10-15T20:34:01.929Z,1.93
2022-10-15T20:36:30.581Z,2.30
2022-10-15T20:39:01.676Z,2.80
2022-10-15T20:41:30.228Z,1.47
2022-10-15T20:43:58.800Z,2.60
2022-10-15T20:46:29.294Z,1.80
2022-10-15T20:48:58.778Z,1.90
2022-10-15T20:51:28.782Z,0.97
2022-10-15T20:53:57.408Z,1.63
2022-10-15T20:56:27.110Z,1.63
2022-10-15T20:58:55.621Z,2.13
2022-10-15T21:01:24.057Z,5.07
2022-10-15T21:03:52.467Z,2.33
2022-10-15T21:06:20.799Z,1.67
2022-10-15T21:08:49.128Z,2.73
2022-10-15T21:11:17.503Z,2.10
2022-10-15T21:13:47.268Z,1.63
2022-10-15T21:16:15.679Z,1.17
2022-10-15T21:18:44.057Z,2.30
2022-10-15T21:21:13.347Z,2.13
2022-10-15T21:23:43.218Z,2.40
2022-10-15T21:26:12.166Z,1.63
2022-10-15T21:28:40.621Z,2.40
2022-10-15T21:31:11.298Z,1.97
2022-10-15T21:33:40.044Z,2.30
2022-10-15T21:36:12.221Z,2.20
2022-10-15T21:38:40.563Z,2.50
2022-10-15T21:41:11.851Z,2.30
2022-10-15T21:43:40.251Z,2.40
2022-10-15T21:46:10.781Z,2.10
2022-10-15T21:48:39.433Z,2.00
2022-10-15T21:51:10.688Z,2.10
2022-10-15T21:53:39.222Z,2.03
2022-10-15T21:56:08.140Z,2.20
2022-10-15T21:58:37.908Z,2.80
2022-10-15T22:01:14.509Z,2.43
2022-10-15T22:03:45.692Z,2.57
2022-10-15T22:06:14.291Z,2.17
2022-10-15T22:08:42.735Z,1.90
2022-10-15T22:11:15.205Z,2.03
2022-10-15T22:13:44.625Z,2.00
2022-10-15T22:16:14.956Z,2.57
2022-10-15T22:18:43.559Z,1.70
2022-10-15T22:21:15.727Z,1.20
2022-10-15T22:23:44.719Z,3.40
2022-10-15T22:26:13.337Z,1.20
2022-10-15T22:28:41.935Z,1.77
2022-10-15T22:31:12.289Z,1.70
2022-10-15T22:33:42.551Z,0.93
2022-10-15T22:36:13.453Z,1.67
2022-10-15T22:38:41.811Z,1.90
2022-10-15T22:41:10.810Z,2.47
2022-10-15T22:43:39.209Z,1.93
2022-10-15T22:46:07.777Z,1.63
2022-10-15T22:48:36.479Z,1.97
2022-10-15T22:51:06.979Z,2.60
2022-10-15T22:53:35.438Z,1.47
2022-10-15T22:56:04.978Z,1.73
2022-10-15T22:58:33.892Z,1.73
2022-10-15T23:01:08.031Z,2.17
2022-10-15T23:03:36.442Z,1.30
2022-10-15T23:06:06.610Z,1.07
2022-10-15T23:08:35.437Z,1.27
2022-10-15T23:11:09.411Z,2.03
2022-10-15T23:13:38.523Z,1.67
2022-10-15T23:16:07.538Z,2.40
2022-10-15T23:18:35.936Z,1.83
2022-10-15T23:21:06.847Z,2.33
2022-10-15T23:23:35.307Z,1.83
2022-10-15T23:26:03.721Z,1.50
2022-10-15T23:28:32.138Z,1.73
2022-10-15T23:31:00.476Z,2.20
2022-10-15T23:33:28.836Z,2.20
2022-10-15T23:36:00.901Z,1.23
2022-10-15T23:38:30.610Z,1.10
2022-10-15T23:41:02.601Z,1.03
2022-10-15T23:43:31.027Z,1.30
2022-10-15T23:45:59.707Z,1.60
2022-10-15T23:48:28.210Z,1.53
2022-10-15T23:51:00.873Z,1.73
2022-10-15T23:53:34.254Z,1.37
2022-10-15T23:56:03.631Z,1.20
2022-10-15T23:58:33.055Z,1.90
